Time;durP1;ratioP1;P1;durP2;ratioP2;P2;SDS_P1;SDS_P2;PMS_P1;PMS_P2;Temp;Humidity;BMP_temperature;BMP_pressure;BME280_temperature;BME280_humidity;BME280_pressure;Samples;Min_cycle;Max_cycle;Signal;HPM_P1;HPM_P2
2022/06/10 00:02:05;;;;;;;14.43;11.57;;;;;;;19.00;100.00;98215.97;4998341;28;20191;-89
2022/06/10 00:04:32;;;;;;;16.50;12.13;;;;;;;18.08;100.00;98060.31;4994820;28;20187;-87
2022/06/10 00:06:58;;;;;;;15.20;12.33;;;;;;;17.08;100.00;97867.38;5003247;28;20242;-87
2022/06/10 00:09:24;;;;;;;16.13;13.50;;;;;;;18.17;100.00;98063.69;4997969;28;20207;-87
2022/06/10 00:11:49;;;;;;;17.50;13.43;;;;;;;17.83;100.00;97982.00;4997365;28;20186;-87
2022/06/10 00:14:15;;;;;;;16.10;12.53;;;;;;;19.10;100.00;98201.31;5011956;28;20250;-87
2022/06/10 00:16:40;;;;;;;17.40;13.73;;;;;;;18.49;100.00;98098.44;5010792;28;20171;-87
2022/06/10 00:19:06;;;;;;;19.07;12.67;;;;;;;18.12;100.00;98028.72;4991170;28;20211;-88
2022/06/10 00:21:31;;;;;;;16.27;12.67;;;;;;;17.31;100.00;97874.91;4975645;28;20191;-87
2022/06/10 00:23:57;;;;;;;16.77;13.87;;;;;;;17.56;100.00;97917.38;4992269;28;20234;-87
2022/06/10 00:26:22;;;;;;;16.33;13.53;;;;;;;18.10;100.00;98010.78;4991051;28;20201;-87
2022/06/10 00:28:48;;;;;;;18.17;14.60;;;;;;;18.38;100.00;98069.47;4992055;28;20656;-88
2022/06/10 00:31:14;;;;;;;13.67;12.03;;;;;;;19.00;100.00;98172.34;5011800;28;20166;-88
2022/06/10 00:33:40;;;;;;;12.40;10.53;;;;;;;17.88;100.00;98032.31;5011709;28;20197;-87
2022/06/10 00:36:07;;;;;;;11.93;9.70;;;;;;;18.75;100.00;98178.56;4995979;28;20206;-87
2022/06/10 00:38:33;;;;;;;16.17;10.10;;;;;;;17.96;100.00;98038.25;5016752;28;20205;-88
2022/06/10 00:40:59;;;;;;;12.33;9.87;;;;;;;18.16;100.00;98063.69;5016206;28;20242;-89
2022/06/10 00:43:31;;;;;;;16.50;12.87;;;;;;;19.77;100.00;98355.59;4999169;28;20175;-88
2022/06/10 00:46:14;;;;;;;19.43;15.50;;;;;;;20.16;100.00;98419.41;4999133;28;20321;-88
2022/06/10 00:49:07;;;;;;;20.23;16.87;;;;;;;20.07;100.00;98416.09;4998106;28;20182;-88
2022/06/10 00:51:56;;;;;;;21.77;17.80;;;;;;;20.11;100.00;98417.78;4979216;28;20179;-87
2022/06/10 00:54:35;;;;;;;21.97;16.93;;;;;;;19.31;100.00;98281.50;4995889;28;20175;-86
2022/06/10 00:57:01;;;;;;;22.27;17.90;;;;;;;20.15;100.00;98409.16;4995551;28;20201;-88
2022/06/10 00:59:31;;;;;;;22.47;18.10;;;;;;;18.61;100.00;98147.06;5010216;28;20269;-87
2022/06/10 01:02:01;;;;;;;22.83;18.37;;;;;;;20.08;100.00;98403.22;5014860;28;20233;-87
2022/06/10 01:04:28;;;;;;;21.13;16.93;;;;;;;18.78;100.00;98214.44;4997353;28;20663;-87
2022/06/10 01:06:54;;;;;;;21.13;17.63;;;;;;;17.73;100.00;98055.47;5014954;28;20202;-87
2022/06/10 01:09:20;;;;;;;24.17;18.47;;;;;;;18.85;100.00;98272.50;4997054;28;20173;-87
2022/06/10 01:12:10;;;;;;;21.97;17.73;;;;;;;19.95;100.00;98399.06;5003179;28;20191;-87
2022/06/10 01:14:48;;;;;;;26.03;18.17;;;;;;;19.86;100.00;98400.00;4977685;28;20187;-86
2022/06/10 01:17:34;;;;;;;23.43;17.43;;;;;;;19.92;100.00;98399.94;4995068;28;20179;-86
2022/06/10 01:20:06;;;;;;;21.23;18.30;;;;;;;19.91;100.00;98405.13;4978187;28;20191;-88
2022/06/10 01:22:59;;;;;;;22.57;18.30;;;;;;;19.91;100.00;98405.94;4995977;28;20246;-87
2022/06/10 01:25:52;;;;;;;23.23;18.33;;;;;;;19.95;100.00;98415.34;5001991;28;20221;-87
2022/06/10 01:28:42;;;;;;;23.77;18.40;;;;;;;19.81;100.00;98413.75;5010469;28;20187;-87
2022/06/10 01:31:16;;;;;;;23.40;18.53;;;;;;;18.69;100.00;98232.44;4996615;28;20179;-86
2022/06/10 01:33:51;;;;;;;22.87;17.73;;;;;;;19.18;100.00;98295.31;5001444;28;20226;-85
2022/06/10 01:36:16;;;;;;;27.87;18.50;;;;;;;19.88;100.00;98425.69;4997909;28;20272;-87
2022/06/10 01:39:20;;;;;;;23.90;18.63;;;;;;;19.91;100.00;98429.06;4982126;28;20663;-87
2022/06/10 01:42:01;;;;;;;24.33;18.70;;;;;;;18.98;100.00;98279.22;4954383;29;20228;-85
2022/06/10 01:44:37;;;;;;;23.13;18.73;;;;;;;18.47;100.00;98194.97;4955361;29;20192;-86
2022/06/10 01:47:17;;;;;;;22.63;18.33;;;;;;;19.98;100.00;98441.00;4953488;28;20259;-87
2022/06/10 01:49:51;;;;;;;24.83;19.07;;;;;;;19.95;100.00;98428.19;4954082;29;20201;-86
2022/06/10 01:52:49;;;;;;;22.60;18.70;;;;;;;18.00;100.00;98096.25;4953662;29;20646;-87
2022/06/10 01:55:41;;;;;;;24.07;19.37;;;;;;;18.91;100.00;98258.78;4953663;29;20582;-87
2022/06/10 01:58:13;;;;;;;25.57;19.53;;;;;;;19.86;100.00;98437.72;4953750;29;20181;-86
2022/06/10 02:00:47;;;;;;;23.73;20.07;;;;;;;19.16;100.00;98327.00;4937889;29;20176;-87
2022/06/10 02:03:24;;;;;;;25.47;20.10;;;;;;;19.54;100.00;98368.63;4937545;29;20704;-87
2022/06/10 02:06:13;;;;;;;24.87;19.47;;;;;;;19.61;100.00;98369.44;4935399;29;20240;-87
2022/06/10 02:08:47;;;;;;;25.77;20.20;;;;;;;18.78;100.00;98225.56;4938406;29;20197;-85
2022/06/10 02:11:15;;;;;;;24.53;20.87;;;;;;;17.80;100.00;98044.31;4941456;29;20188;-87
2022/06/10 02:14:19;;;;;;;25.07;20.47;;;;;;;20.14;100.00;98423.72;4936357;29;20174;-88
2022/06/10 02:16:47;;;;;;;27.37;22.07;;;;;;;20.01;100.00;98425.56;4974453;28;20667;-86
2022/06/10 02:19:28;;;;;;;29.83;24.37;;;;;;;19.50;100.00;98348.13;4995167;28;20171;-87
2022/06/10 02:22:12;;;;;;;34.67;26.43;;;;;;;19.66;100.00;98419.03;4993630;28;20187;-87
2022/06/10 02:24:40;;;;;;;36.97;27.70;;;;;;;19.72;100.00;98419.81;4993630;28;20176;-86
2022/06/10 02:27:17;;;;;;;34.83;26.17;;;;;;;19.59;100.00;98412.22;4993239;28;20203;-87
2022/06/10 02:30:10;;;;;;;31.43;25.43;;;;;;;18.19;100.00;98158.44;4994248;28;20644;-87
2022/06/10 02:32:37;;;;;;;32.60;25.07;;;;;;;19.67;100.00;98410.44;4992813;28;20807;-87
2022/06/10 02:35:04;;;;;;;32.17;24.10;;;;;;;19.30;100.00;98385.06;4994262;28;20259;-86
2022/06/10 02:37:49;;;;;;;34.73;24.07;;;;;;;17.66;100.00;98133.16;4994149;28;20587;-87
2022/06/10 02:40:29;;;;;;;30.63;23.93;;;;;;;19.59;100.00;98441.31;4976710;28;20624;-87
2022/06/10 02:43:17;;;;;;;34.37;23.57;;;;;;;19.50;100.00;98440.56;4994145;28;20183;-86
2022/06/10 02:45:46;;;;;;;27.70;22.70;;;;;;;19.45;100.00;98435.44;4977269;28;20282;-87
2022/06/10 02:48:29;;;;;;;29.30;22.43;;;;;;;19.52;100.00;98449.09;4980004;28;20652;-87
2022/06/10 02:50:56;;;;;;;28.83;22.70;;;;;;;18.00;100.00;98187.56;5013106;28;20261;-87
2022/06/10 02:53:21;;;;;;;31.53;22.50;;;;;;;18.31;100.00;98226.69;5013117;28;20637;-87
2022/06/10 02:55:47;;;;;;;28.47;21.67;;;;;;;18.47;100.00;98269.31;4995885;28;20221;-87
2022/06/10 03:01:51;;;;;;;29.60;22.50;;;;;;;16.29;100.00;97901.81;4933019;29;20304;-87
2022/06/10 03:04:31;;;;;;;31.43;22.70;;;;;;;19.62;100.00;98484.09;4876868;29;20202;-87
2022/06/10 03:07:34;;;;;;;34.03;22.97;;;;;;;19.75;100.00;98478.03;4876517;29;20234;-87
2022/06/10 03:10:14;;;;;;;32.03;22.50;;;;;;;19.69;100.00;98480.66;4857951;29;20725;-88
2022/06/10 03:12:58;;;;;;;28.20;21.07;;;;;;;19.78;100.00;98483.13;4858545;29;20222;-88
2022/06/10 03:15:33;;;;;;;26.50;21.40;;;;;;;19.79;100.00;98484.84;4858512;29;20221;-87
2022/06/10 03:18:14;;;;;;;27.80;21.03;;;;;;;19.83;100.00;98486.53;4857937;29;20202;-87
2022/06/10 03:21:18;;;;;;;27.20;21.63;;;;;;;19.69;100.00;98465.25;4857823;29;20195;-88
2022/06/10 03:24:04;;;;;;;26.97;21.13;;;;;;;18.42;100.00;98255.66;4858041;29;20243;-87
2022/06/10 03:26:49;;;;;;;28.27;21.53;;;;;;;18.40;100.00;98239.47;4857988;29;20278;-88
2022/06/10 03:29:47;;;;;;;28.50;21.23;;;;;;;16.78;100.00;97986.84;4857848;29;20206;-87
2022/06/10 03:32:22;;;;;;;27.13;20.77;;;;;;;18.24;100.00;98190.84;4857590;29;20180;-88
2022/06/10 03:34:52;;;;;;;28.20;20.57;;;;;;;17.53;100.00;98080.28;4857952;29;20180;-88
2022/06/10 03:37:18;;;;;;;25.20;20.33;;;;;;;17.05;100.00;98028.50;4884184;29;20310;-88
2022/06/10 03:39:50;;;;;;;28.77;21.37;;;;;;;17.89;100.00;98182.53;4942832;28;20203;-86
2022/06/10 03:42:18;;;;;;;27.63;21.63;;;;;;;18.43;100.00;98254.81;4972622;28;20665;-87
2022/06/10 03:44:47;;;;;;;26.37;21.47;;;;;;;18.69;100.00;98314.50;4971296;28;20192;-86
2022/06/10 03:47:21;;;;;;;28.93;22.53;;;;;;;16.47;100.00;97896.66;4972909;28;20298;-86
2022/06/10 03:49:55;;;;;;;29.13;22.03;;;;;;;17.19;100.00;98009.69;4972947;28;20608;-85
2022/06/10 03:52:24;;;;;;;28.20;22.23;;;;;;;17.73;100.00;98105.81;4973098;28;20164;-86
2022/06/10 03:54:49;;;;;;;27.03;21.20;;;;;;;17.00;100.00;98002.09;4989777;28;20620;-84
2022/06/10 03:57:17;;;;;;;28.50;21.03;;;;;;;16.80;100.00;97937.44;4992066;28;20532;-85
2022/06/10 03:59:43;;;;;;;24.60;19.67;;;;;;;19.05;100.00;98286.03;4990753;28;20179;-86
2022/06/10 04:02:08;;;;;;;24.40;19.37;;;;;;;17.95;100.00;98112.50;4991906;28;20182;-86
2022/06/10 04:04:34;;;;;;;27.20;20.17;;;;;;;20.17;100.00;98453.66;4991893;28;20171;-86
2022/06/10 04:06:59;;;;;;;25.03;20.70;;;;;;;17.30;100.00;97992.59;4991949;28;20281;-86
2022/06/10 04:09:25;;;;;;;25.13;20.07;;;;;;;18.47;100.00;98164.22;4992005;28;20266;-86
2022/06/10 04:11:50;;;;;;;25.60;19.77;;;;;;;17.03;100.00;97904.09;4995021;28;20171;-87
2022/06/10 04:14:16;;;;;;;30.03;20.00;;;;;;;20.16;100.00;98419.41;4979847;28;20238;-86
2022/06/10 04:16:41;;;;;;;26.47;20.00;;;;;;;20.50;100.00;98484.22;4992893;28;20190;-86
2022/06/10 04:19:07;;;;;;;28.43;19.50;;;;;;;19.59;100.00;98319.78;4976279;28;20171;-87
2022/06/10 04:21:32;;;;;;;24.63;19.23;;;;;;;20.78;100.00;98503.63;4976133;28;20278;-85
2022/06/10 04:23:58;;;;;;;27.23;20.13;;;;;;;20.33;100.00;98414.97;4992485;28;20191;-87
2022/06/10 04:26:23;;;;;;;29.73;19.87;;;;;;;19.78;100.00;98364.97;4976504;28;20601;-87
2022/06/10 04:28:49;;;;;;;28.83;20.43;;;;;;;20.59;100.00;98518.41;5008919;28;20191;-88
2022/06/10 04:31:14;;;;;;;24.13;19.40;;;;;;;20.64;100.00;98525.22;4973233;28;20338;-87
2022/06/10 04:33:40;;;;;;;27.20;19.63;;;;;;;19.81;100.00;98376.09;4975970;28;20187;-86
2022/06/10 04:36:07;;;;;;;26.17;20.40;;;;;;;20.20;100.00;98444.22;5005618;28;20194;-87
2022/06/10 04:38:32;;;;;;;24.07;19.23;;;;;;;20.09;100.00;98456.31;5014565;28;20544;-87
2022/06/10 04:40:58;;;;;;;25.73;20.03;;;;;;;19.50;100.00;98325.03;4998083;28;20217;-87
2022/06/10 04:43:24;;;;;;;30.60;20.70;;;;;;;20.41;100.00;98462.00;5015742;28;20191;-87
2022/06/10 04:45:52;;;;;;;27.83;20.90;;;;;;;21.05;100.00;98543.63;5013899;28;20186;-88
2022/06/10 04:48:18;;;;;;;26.63;20.20;;;;;;;21.11;100.00;98535.84;5013066;28;20214;-87
2022/06/10 04:50:44;;;;;;;23.43;18.50;;;;;;;21.13;100.00;98544.41;4995790;28;20189;-87
2022/06/10 04:53:10;;;;;;;25.10;19.30;;;;;;;20.49;100.00;98436.25;5013484;28;20198;-87
2022/06/10 04:55:36;;;;;;;22.50;18.90;;;;;;;19.70;100.00;98307.69;5014423;28;20186;-87
2022/06/10 04:58:02;;;;;;;25.57;19.63;;;;;;;21.01;100.00;98541.97;4997069;28;20316;-88
2022/06/10 05:00:32;;;;;;;26.07;19.97;;;;;;;20.30;100.00;98433.00;5014281;28;20240;-86
2022/06/10 05:02:58;;;;;;;25.47;20.37;;;;;;;19.45;100.00;98319.09;5016508;28;20184;-86
2022/06/10 05:05:25;;;;;;;25.73;19.87;;;;;;;17.78;100.00;98053.72;4998370;28;20233;-86
2022/06/10 05:07:51;;;;;;;24.97;19.83;;;;;;;20.27;100.00;98450.19;5007702;28;20199;-87
2022/06/10 05:10:18;;;;;;;26.33;20.17;;;;;;;19.38;100.00;98262.69;4993355;28;20857;-87
2022/06/10 05:12:46;;;;;;;24.57;19.77;;;;;;;19.73;100.00;98308.53;4976836;28;20218;-87
2022/06/10 05:15:16;;;;;;;23.67;19.13;;;;;;;20.19;100.00;98401.38;4990906;28;20265;-88
2022/06/10 05:17:42;;;;;;;24.53;19.87;;;;;;;21.06;100.00;98553.03;5014244;28;20214;-88
2022/06/10 05:20:09;;;;;;;24.03;19.13;;;;;;;19.82;99.62;98287.91;5013242;28;20206;-86
2022/06/10 05:22:35;;;;;;;26.43;19.50;;;;;;;21.56;97.84;98549.88;5012869;28;20210;-87
2022/06/10 05:25:00;;;;;;;22.27;18.60;;;;;;;21.18;96.19;98449.94;5012561;28;20225;-86
2022/06/10 05:27:26;;;;;;;24.90;19.10;;;;;;;22.12;93.96;98573.09;4995791;28;20209;-88
2022/06/10 05:29:52;;;;;;;21.47;18.60;;;;;;;21.89;93.62;98497.88;5011711;28;20187;-87
2022/06/10 05:32:17;;;;;;;25.43;18.33;;;;;;;21.37;93.67;98459.09;4979955;28;20207;-88
2022/06/10 05:34:46;;;;;;;23.77;18.70;;;;;;;20.40;94.89;98310.34;4992532;28;20183;-87
2022/06/10 05:37:20;;;;;;;24.47;18.33;;;;;;;21.69;92.70;98472.38;4994608;28;20624;-86
2022/06/10 05:39:46;;;;;;;20.07;17.20;;;;;;;21.59;92.32;98446.78;5000916;28;20186;-86
2022/06/10 05:42:13;;;;;;;23.37;17.47;;;;;;;21.60;92.61;98531.75;4998400;28;20230;-87
2022/06/10 05:44:41;;;;;;;20.03;16.70;;;;;;;21.98;93.39;98592.22;4995453;28;20502;-85
2022/06/10 05:47:09;;;;;;;24.37;17.03;;;;;;;18.15;95.18;97969.78;5005712;28;20308;-85
2022/06/10 05:49:37;;;;;;;21.00;16.47;;;;;;;18.40;93.34;97978.09;4996915;28;20190;-87
2022/06/10 05:52:05;;;;;;;19.40;16.23;;;;;;;21.26;91.44;98413.81;5001273;28;20562;-84
2022/06/10 05:54:30;;;;;;;22.00;16.60;;;;;;;22.04;91.59;98538.00;5013440;28;20504;-85
2022/06/10 05:56:56;;;;;;;21.67;16.67;;;;;;;20.20;89.88;98205.19;4996844;28;20678;-84
2022/06/10 05:59:22;;;;;;;23.60;17.67;;;;;;;19.48;87.60;98032.41;5001975;28;20187;-85
2022/06/10 06:01:51;;;;;;;26.83;18.10;;;;;;;19.09;85.37;97958.50;5009057;28;20197;-87
2022/06/10 06:04:16;;;;;;;23.83;18.77;;;;;;;21.18;86.10;98280.06;5003382;28;20194;-85
2022/06/10 06:06:43;;;;;;;22.07;17.87;;;;;;;19.92;85.74;98045.44;5008588;28;20214;-86
2022/06/10 06:09:13;;;;;;;23.90;17.70;;;;;;;20.79;87.44;98267.81;5000925;28;20682;-86
2022/06/10 06:11:39;;;;;;;23.77;18.30;;;;;;;22.47;90.51;98577.66;4993468;28;20187;-86
2022/06/10 06:14:04;;;;;;;23.23;16.97;;;;;;;19.80;89.76;98096.16;4986868;28;21009;-86
2022/06/10 06:16:30;;;;;;;25.83;18.20;;;;;;;21.22;89.39;98324.63;4992535;28;20187;-86
2022/06/10 06:18:55;;;;;;;28.40;17.67;;;;;;;20.57;88.51;98208.13;4984962;28;20195;-87
2022/06/10 06:21:21;;;;;;;17.47;15.30;;;;;;;20.05;87.03;98182.28;5006982;28;20193;-88
2022/06/10 06:23:49;;;;;;;18.87;16.03;;;;;;;19.87;90.30;98152.56;5000449;28;20188;-87
2022/06/10 06:26:15;;;;;;;20.33;15.73;;;;;;;21.42;88.23;98382.66;4997018;28;20191;-87
2022/06/10 06:28:42;;;;;;;17.17;15.37;;;;;;;20.86;84.73;98229.09;5002067;28;20199;-86
2022/06/10 06:31:09;;;;;;;20.23;15.10;;;;;;;20.14;82.04;98076.78;5005799;28;20294;-86
2022/06/10 06:33:34;;;;;;;19.50;16.03;;;;;;;21.72;82.19;98322.06;4992330;28;20198;-83
2022/06/10 06:36:00;;;;;;;20.43;16.33;;;;;;;22.68;80.50;98444.88;5003348;28;20293;-87
2022/06/10 06:38:27;;;;;;;17.40;15.20;;;;;;;23.03;78.00;98462.22;5003357;28;20250;-86
2022/06/10 06:40:52;;;;;;;19.27;16.60;;;;;;;23.69;77.23;98550.34;4995398;28;20220;-87
2022/06/10 06:43:17;;;;;;;19.23;15.83;;;;;;;22.87;75.77;98369.63;4995971;28;20268;-85
2022/06/10 06:45:43;;;;;;;21.10;16.63;;;;;;;23.49;76.45;98499.09;5004403;28;20548;-85
2022/06/10 06:48:10;;;;;;;24.07;17.77;;;;;;;23.56;77.79;98557.53;4975889;28;20352;-85
2022/06/10 06:50:41;;;;;;;27.33;17.03;;;;;;;22.64;77.79;98423.44;4986309;28;20194;-87
2022/06/10 06:53:06;;;;;;;20.70;17.20;;;;;;;22.76;77.90;98417.19;5010157;28;20742;-85
2022/06/10 06:55:33;;;;;;;25.83;18.10;;;;;;;23.90;77.85;98617.06;4995825;28;20273;-86
2022/06/10 06:57:59;;;;;;;24.30;18.47;;;;;;;19.90;75.78;97931.63;4994701;28;20195;-86
2022/06/10 07:00:27;;;;;;;25.50;17.30;;;;;;;20.69;75.79;98052.75;4990507;28;20191;-86
2022/06/10 07:02:53;;;;;;;22.20;17.50;;;;;;;24.22;74.65;98637.09;4990046;28;20199;-86
2022/06/10 07:05:19;;;;;;;23.90;18.40;;;;;;;20.80;76.32;98097.13;4998123;28;20188;-86
2022/06/10 07:07:44;;;;;;;23.67;18.20;;;;;;;22.74;76.76;98404.31;4990307;28;20695;-86
2022/06/10 07:10:15;;;;;;;25.33;19.20;;;;;;;20.09;76.14;97934.72;4988878;28;20218;-85
2022/06/10 07:12:40;;;;;;;22.53;19.00;;;;;;;21.38;77.49;98153.56;4995853;28;20194;-86
2022/06/10 07:15:06;;;;;;;24.30;19.40;;;;;;;23.40;76.78;98455.41;4973966;28;20545;-84
2022/06/10 07:17:32;;;;;;;24.87;19.73;;;;;;;22.57;74.21;98298.03;4983142;28;20233;-86
2022/06/10 07:20:01;;;;;;;24.73;19.93;;;;;;;21.78;72.93;98092.63;4972953;28;20179;-87
2022/06/10 07:22:27;;;;;;;25.57;21.53;;;;;;;21.71;74.03;98166.63;4998413;28;20191;-85
2022/06/10 07:24:53;;;;;;;25.77;20.77;;;;;;;22.50;73.53;98265.47;4995349;28;20624;-86
2022/06/10 07:27:19;;;;;;;28.40;20.77;;;;;;;20.91;76.50;98095.22;4996676;28;20213;-86
2022/06/10 07:29:45;;;;;;;27.37;20.83;;;;;;;23.27;77.67;98467.69;5007164;28;20245;-86
2022/06/10 07:32:10;;;;;;;26.73;21.10;;;;;;;23.94;77.43;98593.72;4973833;28;20188;-85
2022/06/10 07:34:36;;;;;;;24.80;20.70;;;;;;;23.78;73.67;98450.19;4991014;28;20191;-86
2022/06/10 07:37:02;;;;;;;25.50;20.67;;;;;;;24.58;71.89;98504.22;4994534;28;20934;-84
2022/06/10 07:39:29;;;;;;;26.43;20.33;;;;;;;25.15;69.48;98519.88;4998547;28;20684;-87
2022/06/10 07:42:00;;;;;;;27.37;21.87;;;;;;;25.17;68.02;98538.81;4992046;28;20238;-85
2022/06/10 07:44:36;;;;;;;30.70;22.70;;;;;;;23.85;69.00;98374.16;4993190;28;20183;-86
2022/06/10 07:47:07;;;;;;;31.40;22.80;;;;;;;25.76;68.01;98628.69;4998529;28;20272;-87
2022/06/10 07:49:33;;;;;;;27.20;21.47;;;;;;;26.27;64.46;98621.09;4991632;28;20187;-85
2022/06/10 07:51:58;;;;;;;26.70;21.13;;;;;;;24.92;64.78;98396.22;5009987;28;20189;-84
2022/06/10 07:54:24;;;;;;;30.35;22.85;;;;;;;26.10;65.62;98625.91;4979457;28;20202;-88
2022/06/10 07:56:50;;;;;;;25.33;22.30;;;;;;;25.76;65.45;98633.03;4994201;28;20217;-87
2022/06/10 07:59:16;;;;;;;28.55;22.45;;;;;;;25.14;65.95;98544.94;4996754;28;20200;-87
2022/06/10 08:01:42;;;;;;;27.13;22.98;;;;;;;25.16;67.23;98544.91;4999847;28;20247;-86
2022/06/10 08:04:08;;;;;;;28.70;22.52;;;;;;;25.45;66.80;98590.72;5003701;28;20187;-87
2022/06/10 08:06:37;;;;;;;27.58;22.48;;;;;;;25.75;67.66;98616.63;5005296;28;20680;-86
2022/06/10 08:09:07;;;;;;;33.45;23.10;;;;;;;25.64;65.42;98578.94;4995028;28;20661;-90
2022/06/10 08:11:33;;;;;;;29.20;23.20;;;;;;;23.57;65.71;98263.81;4979850;28;20272;-86
2022/06/10 08:13:58;;;;;;;29.08;23.00;;;;;;;25.10;65.96;98514.84;4974341;28;20686;-84
2022/06/10 08:16:25;;;;;;;33.00;23.45;;;;;;;25.52;67.56;98639.75;4972818;28;20271;-85
2022/06/10 08:18:51;;;;;;;28.70;23.53;;;;;;;24.96;69.55;98645.63;4967328;28;20808;-85
2022/06/10 08:22:32;;;;;;;27.27;23.53;;;;;;;23.73;70.90;98495.13;4951129;28;20271;-86
2022/06/10 08:24:15;;;;;;;29.40;23.80;;;;;;;23.36;74.27;98545.00;4976157;28;20195;-87
2022/06/10 08:26:41;;;;;;;30.53;23.57;;;;;;;24.27;74.11;98627.47;4951651;28;20747;-87
2022/06/10 08:29:07;;;;;;;29.60;23.93;;;;;;;24.60;72.81;98647.38;4971176;28;20196;-85
2022/06/10 08:31:34;;;;;;;31.33;23.57;;;;;;;23.44;71.30;98403.63;4965224;28;20200;-84
2022/06/10 08:33:59;;;;;;;27.70;22.27;;;;;;;25.09;71.33;98645.25;4974220;28;20270;-89
2022/06/10 08:36:25;;;;;;;27.40;21.80;;;;;;;26.07;67.54;98649.34;4970790;28;20255;-89
2022/06/10 08:38:51;;;;;;;28.23;22.05;;;;;;;27.00;63.65;98639.47;4968917;28;20659;-89
2022/06/10 08:41:48;;;;;;;29.20;23.58;;;;;;;26.04;64.24;98599.31;4965994;28;20657;-89
2022/06/10 08:44:33;;;;;;;28.65;23.25;;;;;;;25.56;63.74;98490.19;4911077;29;20202;-89
2022/06/10 08:47:23;;;;;;;27.00;24.08;;;;;;;26.44;62.30;98632.66;4903346;29;20216;-90
2022/06/10 08:50:22;;;;;;;29.33;24.73;;;;;;;26.41;63.36;98637.94;4910693;29;20340;-89
2022/06/10 08:53:04;;;;;;;27.35;23.77;;;;;;;24.74;62.88;98362.25;4872970;29;20215;-86
2022/06/10 08:55:42;;;;;;;32.08;25.17;;;;;;;25.67;64.42;98607.38;4881174;29;20218;-87
2022/06/10 08:58:34;;;;;;;30.23;25.83;;;;;;;25.59;64.82;98578.22;4904756;29;20222;-85
2022/06/10 09:01:07;;;;;;;31.65;25.48;;;;;;;25.28;65.03;98491.88;4902023;29;20944;-87
2022/06/10 09:03:44;;;;;;;29.55;24.60;;;;;;;26.14;63.00;98639.69;4893796;29;20236;-89
2022/06/10 09:06:45;;;;;;;35.03;26.15;;;;;;;25.58;66.05;98642.19;4901493;29;20266;-85
2022/06/10 09:09:14;;;;;;;33.53;26.38;;;;;;;25.50;65.18;98568.97;4899972;29;20244;-87
2022/06/10 09:12:04;;;;;;;33.92;26.38;;;;;;;25.69;66.11;98634.09;4899791;29;20204;-87
2022/06/10 09:14:29;;;;;;;32.33;24.70;;;;;;;25.59;66.90;98633.53;4882490;29;20236;-85
2022/06/10 09:17:05;;;;;;;30.90;24.60;;;;;;;25.34;68.57;98644.59;4888910;29;20203;-85
2022/06/10 09:19:51;;;;;;;30.45;24.25;;;;;;;25.77;68.32;98642.50;4888324;29;20218;-86
2022/06/10 09:22:32;;;;;;;32.38;23.70;;;;;;;25.57;67.57;98619.72;4949244;29;20202;-86
2022/06/10 09:25:11;;;;;;;32.15;22.65;;;;;;;25.67;68.62;98633.28;4951075;29;20740;-87
2022/06/10 09:27:47;;;;;;;33.83;23.80;;;;;;;25.44;64.33;98415.34;4961311;29;20239;-87
2022/06/10 09:30:17;;;;;;;30.02;21.88;;;;;;;26.14;63.12;98528.97;4996341;28;20204;-87
2022/06/10 09:33:14;;;;;;;33.22;23.17;;;;;;;26.31;63.90;98627.03;5009289;28;20202;-85
2022/06/10 09:35:51;;;;;;;30.95;20.08;;;;;;;25.20;65.13;98543.91;5012458;28;20915;-86
2022/06/10 09:40:35;;;;;;;29.55;20.20;;;;;;;25.94;64.20;98623.84;5009617;28;20203;-87
2022/06/10 09:42:10;;;;;;;27.98;20.30;;;;;;;26.23;64.01;98614.28;4919435;29;20232;-84
2022/06/10 09:45:04;;;;;;;28.88;21.23;;;;;;;24.60;65.93;98424.78;4948456;29;20191;-88
2022/06/10 09:47:45;;;;;;;30.20;21.90;;;;;;;26.54;65.18;98615.88;4889907;29;20344;-86
2022/06/10 09:50:45;;;;;;;27.23;20.52;;;;;;;27.23;61.35;98630.84;4886959;29;20325;-88
2022/06/10 09:53:14;;;;;;;29.88;21.25;;;;;;;27.35;59.53;98614.81;4819708;29;20219;-87
2022/06/10 09:55:58;;;;;;;25.98;20.20;;;;;;;27.21;59.45;98633.50;4814349;29;21097;-85
2022/06/10 09:58:46;;;;;;;28.17;21.20;;;;;;;27.23;59.75;98626.50;4810935;29;20219;-87
2022/06/10 10:01:29;;;;;;;26.85;20.83;;;;;;;27.52;58.23;98634.09;4813457;29;20557;-88
2022/06/10 10:04:00;;;;;;;24.65;19.92;;;;;;;27.74;57.94;98630.72;4813354;29;20208;-87
2022/06/10 10:06:45;;;;;;;21.73;19.17;;;;;;;26.61;58.74;98550.72;4805167;29;20731;-86
2022/06/10 10:09:40;;;;;;;22.13;17.88;;;;;;;27.11;59.18;98632.13;4812682;29;20688;-86
2022/06/10 10:12:08;;;;;;;22.50;18.60;;;;;;;26.76;60.30;98614.25;4814521;29;20264;-82
2022/06/10 10:15:07;;;;;;;24.05;19.15;;;;;;;26.08;60.80;98474.63;4796063;29;20190;-84
2022/06/10 10:18:00;;;;;;;25.63;18.70;;;;;;;27.17;60.44;98603.31;4839411;29;20301;-87
2022/06/10 10:20:47;;;;;;;24.02;18.27;;;;;;;27.99;57.27;98595.88;4849134;29;20195;-87
2022/06/10 10:23:17;;;;;;;27.45;18.50;;;;;;;28.46;55.90;98580.97;4856796;29;20211;-88
2022/06/10 10:25:44;;;;;;;21.33;17.10;;;;;;;28.14;56.26;98599.66;4935389;29;20198;-88
2022/06/10 10:28:32;;;;;;;20.55;17.20;;;;;;;27.07;59.21;98588.97;4933755;29;20227;-87
2022/06/10 10:31:13;;;;;;;23.40;18.65;;;;;;;27.47;58.78;98607.44;4980707;28;20268;-87
2022/06/10 10:33:39;;;;;;;25.75;19.10;;;;;;;27.03;59.75;98570.94;4974542;28;20277;-86
2022/06/10 10:36:27;;;;;;;23.35;19.35;;;;;;;26.62;61.07;98574.91;4991179;28;20806;-87
2022/06/10 10:38:53;;;;;;;25.40;19.10;;;;;;;26.03;61.48;98475.69;4991549;28;20249;-88
2022/06/10 10:41:32;;;;;;;31.63;20.13;;;;;;;27.09;61.38;98600.13;4990466;28;20231;-85
2022/06/10 10:44:08;;;;;;;26.73;21.08;;;;;;;26.49;60.64;98558.06;4975990;28;20547;-87
2022/06/10 10:46:42;;;;;;;25.27;20.95;;;;;;;26.58;61.88;98594.97;4993933;28;20525;-88
2022/06/10 10:49:26;;;;;;;26.55;20.70;;;;;;;26.19;62.98;98550.41;4994325;28;20257;-86
2022/06/10 10:51:53;;;;;;;24.15;19.95;;;;;;;25.74;60.67;98391.06;4993808;28;20167;-86
2022/06/10 10:54:18;;;;;;;22.55;19.05;;;;;;;27.42;59.55;98591.16;4993802;28;20169;-87
2022/06/10 10:56:47;;;;;;;25.83;20.58;;;;;;;27.41;59.68;98599.03;4998256;28;20623;-87
2022/06/10 10:59:23;;;;;;;25.23;20.73;;;;;;;26.02;60.99;98448.91;4976153;28;20543;-87
2022/06/10 11:01:51;;;;;;;26.17;21.10;;;;;;;25.59;62.01;98397.59;4993897;28;20246;-87
2022/06/10 11:04:38;;;;;;;24.08;20.65;;;;;;;26.19;60.61;98449.22;4993859;28;20258;-87
2022/06/10 11:07:15;;;;;;;28.75;20.15;;;;;;;26.74;59.34;98444.66;4992915;28;20193;-87
2022/06/10 11:09:44;;;;;;;24.67;20.33;;;;;;;27.75;58.04;98593.38;4993177;28;20185;-87
2022/06/10 11:12:16;;;;;;;26.73;21.17;;;;;;;27.83;57.30;98566.16;4993395;28;20171;-88
2022/06/10 11:14:47;;;;;;;26.67;20.63;;;;;;;27.39;57.59;98481.19;4993678;28;20228;-87
2022/06/10 11:17:15;;;;;;;24.63;20.50;;;;;;;27.79;57.53;98585.41;4993336;28;20674;-88
2022/06/10 11:19:50;;;;;;;25.27;20.30;;;;;;;26.48;58.28;98396.25;4992799;28;20882;-87
2022/06/10 11:22:24;;;;;;;28.70;20.85;;;;;;;25.91;59.23;98362.81;4992661;28;20174;-88
2022/06/10 11:25:15;;;;;;;25.02;20.23;;;;;;;24.62;59.85;98205.56;4992948;28;20232;-88
2022/06/10 11:27:59;;;;;;;25.45;21.15;;;;;;;26.36;61.38;98542.06;4992917;28;20196;-88
2022/06/10 11:30:32;;;;;;;25.63;20.25;;;;;;;25.02;62.60;98357.97;4992885;28;20255;-88
2022/06/10 11:33:02;;;;;;;26.63;21.65;;;;;;;26.32;63.41;98561.22;4993565;28;20165;-88
2022/06/10 11:35:33;;;;;;;29.67;23.67;;;;;;;26.19;64.11;98565.97;4976962;28;20183;-86
2022/06/10 11:38:16;;;;;;;30.92;24.75;;;;;;;26.09;64.78;98564.56;4995011;28;20177;-87
2022/06/10 11:40:54;;;;;;;31.63;23.75;;;;;;;26.29;62.91;98515.47;4975218;28;20186;-87
2022/06/10 11:43:32;;;;;;;30.88;24.58;;;;;;;26.51;63.51;98556.28;4993431;28;20174;-87
2022/06/10 11:46:07;;;;;;;30.35;25.17;;;;;;;26.66;64.00;98561.81;4992929;28;20174;-87